Time;durP1;ratioP1;P1;durP2;ratioP2;P2;SDS_P1;SDS_P2;PMS_P1;PMS_P2;Temp;Humidity;BMP_temperature;BMP_pressure;BME280_temperature;BME280_humidity;BME280_pressure;Samples;Min_cycle;Max_cycle;Signal;HPM_P1;HPM_P2
2024/02/18 00:00:40;;;;;;;0.20;0.20;;;;;;;14.04;83.07;101556.69;7363770;19;20018;-62
2024/02/18 00:03:06;;;;;;;0.10;0.10;;;;;;;14.02;83.47;101546.19;7363179;19;20478;-60
2024/02/18 00:05:33;;;;;;;0.10;0.10;;;;;;;13.93;83.47;101535.03;7363216;19;20018;-62
2024/02/18 00:08:00;;;;;;;0.10;0.10;;;;;;;14.00;83.34;101550.63;7361216;19;20013;-61
2024/02/18 00:10:25;;;;;;;0.10;0.10;;;;;;;13.99;83.35;101542.78;7359306;19;20019;-62
2024/02/18 00:12:51;;;;;;;0.10;0.10;;;;;;;13.97;83.31;101539.31;7364760;19;20043;-61
2024/02/18 00:15:16;;;;;;;0.10;0.10;;;;;;;13.97;83.38;101555.94;7361314;19;20078;-62
2024/02/18 00:17:41;;;;;;;0.20;0.20;;;;;;;13.61;83.15;101489.38;7334419;19;20018;-60
2024/02/18 00:20:10;;;;;;;0.10;0.10;;;;;;;13.94;83.17;101549.91;7363702;19;20010;-59
2024/02/18 00:22:39;;;;;;;0.20;0.20;;;;;;;13.97;83.37;101555.06;7362763;19;20027;-60
2024/02/18 00:25:08;;;;;;;0.10;0.10;;;;;;;13.86;83.21;101549.22;7365154;19;20946;-60
2024/02/18 00:27:34;;;;;;;0.20;0.20;;;;;;;13.87;83.66;101543.91;7353986;19;20362;-60
2024/02/18 00:29:59;;;;;;;0.10;0.10;;;;;;;13.96;83.22;101569.97;7362976;19;20017;-59
2024/02/18 00:32:25;;;;;;;0.17;0.17;;;;;;;13.94;83.26;101550.78;7359508;19;20023;-60
2024/02/18 00:34:50;;;;;;;0.10;0.10;;;;;;;13.92;83.65;101554.31;7361057;19;20010;-60
2024/02/18 00:37:17;;;;;;;0.10;0.10;;;;;;;13.96;83.43;101554.22;7361521;19;20050;-60
2024/02/18 00:39:43;;;;;;;0.10;0.10;;;;;;;13.96;83.62;101559.47;7360611;19;20026;-60
2024/02/18 00:42:10;;;;;;;0.10;0.10;;;;;;;13.86;83.57;101538.72;7364769;19;20019;-59
2024/02/18 00:44:35;;;;;;;0.10;0.10;;;;;;;13.96;83.16;101558.59;7365774;19;20023;-61
2024/02/18 00:47:01;;;;;;;0.10;0.10;;;;;;;13.93;83.48;101564.78;7361687;19;20518;-60
2024/02/18 00:49:26;;;;;;;0.10;0.10;;;;;;;13.94;83.05;101563.03;7363595;19;20027;-60
2024/02/18 00:51:52;;;;;;;0.10;0.10;;;;;;;13.93;83.17;101563.91;7367268;19;20002;-60
2024/02/18 00:54:18;;;;;;;0.10;0.10;;;;;;;13.91;83.33;101566.59;7370364;19;20074;-60
2024/02/18 00:56:43;;;;;;;0.10;0.10;;;;;;;13.89;83.17;101567.50;7368544;19;20468;-59
2024/02/18 00:59:09;;;;;;;0.10;0.10;;;;;;;13.87;83.06;101574.56;7362414;19;20017;-60
2024/02/18 01:01:34;;;;;;;0.10;0.10;;;;;;;13.85;83.12;101571.97;7365226;19;20010;-59
2024/02/18 01:04:00;;;;;;;0.20;0.20;;;;;;;13.83;83.12;101572.91;7370989;19;20037;-59
2024/02/18 01:06:26;;;;;;;0.10;0.10;;;;;;;13.70;83.20;101565.31;7366117;19;20014;-60
2024/02/18 01:08:51;;;;;;;0.10;0.10;;;;;;;13.76;83.10;101573.03;7366094;19;20017;-60
2024/02/18 01:11:17;;;;;;;0.10;0.10;;;;;;;13.76;83.16;101588.78;7366428;19;20010;-60
2024/02/18 01:13:42;;;;;;;0.10;0.10;;;;;;;13.72;83.37;101587.13;7362308;19;20003;-60
2024/02/18 01:16:07;;;;;;;0.10;0.10;;;;;;;13.70;83.48;101586.31;7370116;19;20006;-60
2024/02/18 01:18:43;;;;;;;0.10;0.10;;;;;;;13.71;83.47;101587.16;7364168;19;20406;-60
2024/02/18 01:21:09;;;;;;;0.20;0.20;;;;;;;13.65;83.46;101585.53;7367917;19;20078;-60
2024/02/18 01:23:36;;;;;;;0.10;0.10;;;;;;;13.65;83.10;101589.94;7367508;19;20038;-60
2024/02/18 01:26:01;;;;;;;0.10;0.10;;;;;;;13.62;83.39;101587.34;7371846;19;20022;-60
2024/02/18 01:28:27;;;;;;;0.10;0.10;;;;;;;13.59;83.73;101583.06;7364104;19;20014;-60
2024/02/18 01:30:52;;;;;;;0.20;0.20;;;;;;;13.58;83.73;101583.91;7369552;19;20023;-60
2024/02/18 01:33:20;;;;;;;0.10;0.10;;;;;;;13.56;83.62;101588.34;7369572;19;20125;-60
2024/02/18 01:35:45;;;;;;;;;;;;;;;13.60;83.46;101582.16;7372281;19;20018;-60
2024/02/18 01:38:11;;;;;;;0.10;0.10;;;;;;;13.54;83.69;101582.28;7360302;19;20402;-60
2024/02/18 01:40:36;;;;;;;0.10;0.10;;;;;;;13.53;83.51;101577.91;7370138;19;20014;-60
2024/02/18 01:43:02;;;;;;;0.10;0.10;;;;;;;13.49;83.48;101584.13;7368106;19;20034;-60
2024/02/18 01:45:27;;;;;;;0.10;0.10;;;;;;;13.48;83.56;101580.66;7370124;19;20011;-60
2024/02/18 01:47:53;;;;;;;0.10;0.10;;;;;;;13.46;83.82;101589.44;7366628;19;20017;-60
2024/02/18 01:50:19;;;;;;;0.13;0.13;;;;;;;13.45;83.67;101587.72;7367450;19;20014;-60
2024/02/18 01:52:48;;;;;;;0.10;0.10;;;;;;;13.46;83.59;101585.06;7370516;19;20474;-60
2024/02/18 01:55:14;;;;;;;0.10;0.10;;;;;;;13.45;83.52;101587.72;7364587;19;20117;-59
2024/02/18 01:57:41;;;;;;;0.10;0.10;;;;;;;13.40;83.87;101573.81;7363490;19;20018;-60
2024/02/18 02:00:12;;;;;;;0.10;0.10;;;;;;;13.39;83.80;101572.97;7362948;19;20018;-60
2024/02/18 02:02:40;;;;;;;0.10;0.10;;;;;;;13.43;83.79;101581.63;7363253;19;20040;-60
2024/02/18 02:05:09;;;;;;;0.10;0.10;;;;;;;13.44;83.89;101580.75;7367733;19;20026;-60
2024/02/18 02:07:34;;;;;;;0.10;0.10;;;;;;;13.40;83.94;101576.44;7369002;19;20015;-60
2024/02/18 02:10:01;;;;;;;0.10;0.10;;;;;;;13.39;83.79;101583.47;7369694;19;20014;-60
2024/02/18 02:12:26;;;;;;;0.10;0.10;;;;;;;13.39;83.87;101582.59;7362154;19;20656;-60
2024/02/18 02:14:52;;;;;;;0.10;0.10;;;;;;;13.39;83.79;101582.59;7369678;19;20003;-60
2024/02/18 02:17:18;;;;;;;0.10;0.10;;;;;;;13.38;83.51;101584.38;7365279;19;20710;-60
2024/02/18 02:19:43;;;;;;;0.20;0.20;;;;;;;13.40;83.78;101581.69;7363604;19;20006;-61
2024/02/18 02:22:09;;;;;;;0.10;0.10;;;;;;;13.37;83.87;101579.97;7365793;19;20082;-60
2024/02/18 02:24:35;;;;;;;0.10;0.10;;;;;;;13.39;83.88;101582.59;7367154;19;20089;-60
2024/02/18 02:27:04;;;;;;;0.10;0.10;;;;;;;13.31;83.66;101566.13;7365228;19;20431;-60
2024/02/18 02:29:30;;;;;;;0.20;0.20;;;;;;;13.38;83.61;101578.22;7364537;19;20037;-60
2024/02/18 02:31:56;;;;;;;0.20;0.20;;;;;;;13.38;83.72;101578.22;7361434;19;20086;-60
2024/02/18 02:34:22;;;;;;;0.10;0.10;;;;;;;13.37;83.49;101579.97;7365743;19;20073;-59
2024/02/18 02:36:48;;;;;;;0.10;0.10;;;;;;;13.37;83.54;101582.59;7363664;19;20006;-60
2024/02/18 02:39:13;;;;;;;0.10;0.10;;;;;;;13.29;83.35;101576.66;7366466;19;20493;-59
2024/02/18 02:41:39;;;;;;;0.10;0.10;;;;;;;13.35;83.75;101594.91;7366964;19;20401;-60
2024/02/18 02:44:04;;;;;;;0.10;0.10;;;;;;;13.34;83.24;101594.94;7368467;19;20584;-60
2024/02/18 02:46:30;;;;;;;0.10;0.10;;;;;;;13.32;83.68;101588.84;7369468;19;20011;-60
2024/02/18 02:48:55;;;;;;;0.10;0.10;;;;;;;13.16;83.64;101560.25;7366334;19;20010;-59
2024/02/18 02:51:21;;;;;;;0.10;0.10;;;;;;;13.25;83.55;101577.63;7360668;19;20010;-60
2024/02/18 02:53:46;;;;;;;0.10;0.10;;;;;;;13.24;83.49;101581.13;7365370;19;20014;-59
2024/02/18 02:56:12;;;;;;;0.10;0.10;;;;;;;13.19;83.53;101581.19;7367757;19;20774;-60
2024/02/18 02:58:37;;;;;;;0.10;0.10;;;;;;;13.15;83.44;101584.75;7360670;19;20022;-59
2024/02/18 03:01:03;;;;;;;0.10;0.10;;;;;;;13.12;82.92;101584.81;7367387;19;20387;-60
2024/02/18 03:03:29;;;;;;;0.10;0.10;;;;;;;12.95;83.25;101563.31;7364955;19;20007;-60
2024/02/18 03:05:54;;;;;;;0.10;0.10;;;;;;;13.06;83.46;101584.94;7366009;19;20684;-60
2024/02/18 03:08:20;;;;;;;0.10;0.10;;;;;;;13.02;83.24;101587.63;7363925;19;20015;-59
2024/02/18 03:10:45;;;;;;;0.10;0.10;;;;;;;12.98;83.03;101592.09;7365107;19;20365;-60
2024/02/18 03:13:11;;;;;;;0.10;0.10;;;;;;;12.95;82.99;101594.75;7365634;19;20006;-60
2024/02/18 03:15:36;;;;;;;0.10;0.10;;;;;;;12.91;83.13;101595.69;7363765;19;20526;-60
2024/02/18 03:18:05;;;;;;;0.20;0.20;;;;;;;12.87;82.82;101596.66;7361867;19;20435;-60
2024/02/18 03:20:32;;;;;;;0.10;0.10;;;;;;;12.84;82.90;101597.59;7360180;19;20007;-60
2024/02/18 03:22:57;;;;;;;0.20;0.20;;;;;;;12.82;83.08;101595.88;7366949;19;20324;-60
2024/02/18 03:25:23;;;;;;;0.10;0.10;;;;;;;12.78;83.15;101594.22;7365212;19;21169;-60
2024/02/18 03:27:48;;;;;;;0.10;0.10;;;;;;;12.73;83.36;101594.28;7363453;19;20520;-60
2024/02/18 03:30:14;;;;;;;0.10;0.10;;;;;;;12.72;83.18;101596.06;7360566;19;20558;-60
2024/02/18 03:32:39;;;;;;;0.10;0.10;;;;;;;12.59;83.28;101577.94;7365331;19;20014;-60
2024/02/18 03:35:05;;;;;;;0.10;0.10;;;;;;;12.65;83.56;101583.91;7364555;19;20035;-60
2024/02/18 03:37:31;;;;;;;0.10;0.10;;;;;;;12.63;83.11;101585.72;7365438;19;20003;-60
2024/02/18 03:39:56;;;;;;;0.20;0.20;;;;;;;12.60;83.56;101580.50;7364157;19;20344;-60
2024/02/18 03:42:22;;;;;;;0.10;0.10;;;;;;;12.57;83.41;101591.06;7365286;19;20526;-60
2024/02/18 03:44:48;;;;;;;0.10;0.10;;;;;;;12.40;83.34;101556.41;7362919;19;20042;-60
2024/02/18 03:47:14;;;;;;;0.20;0.20;;;;;;;12.37;83.42;101562.56;7360132;19;20007;-60
2024/02/18 03:49:39;;;;;;;0.10;0.10;;;;;;;12.49;83.52;101587.69;7365186;19;20329;-59
2024/02/18 03:52:05;;;;;;;0.10;0.10;;;;;;;12.45;83.38;101586.00;7362835;19;20063;-59
2024/02/18 03:54:31;;;;;;;0.10;0.10;;;;;;;12.38;83.51;101569.53;7364605;19;20010;-59
2024/02/18 03:56:56;;;;;;;0.13;0.13;;;;;;;12.39;83.19;101580.88;7365557;19;20027;-60
2024/02/18 03:59:22;;;;;;;0.08;0.08;;;;;;;12.27;83.27;101565.38;7362946;19;20090;-60
2024/02/18 04:01:48;;;;;;;0.10;0.10;;;;;;;12.34;83.60;101582.72;7363176;19;20017;-59
2024/02/18 04:04:14;;;;;;;0.10;0.10;;;;;;;12.32;83.55;101584.50;7364697;19;20082;-59
2024/02/18 04:06:39;;;;;;;0.20;0.20;;;;;;;12.29;83.17;101580.16;7360721;19;20087;-60
2024/02/18 04:09:07;;;;;;;0.10;0.10;;;;;;;12.04;83.48;101558.72;7365913;19;20019;-59
2024/02/18 04:11:33;;;;;;;0.10;0.10;;;;;;;12.17;83.19;101581.22;7363232;19;20022;-60
2024/02/18 04:13:59;;;;;;;0.10;0.10;;;;;;;12.19;83.04;101584.66;7361492;19;20011;-59
2024/02/18 04:16:25;;;;;;;0.10;0.10;;;;;;;12.11;83.38;101573.44;7335942;19;20455;-59
2024/02/18 04:18:52;;;;;;;0.10;0.10;;;;;;;11.96;83.29;101552.72;7362129;19;20021;-59
2024/02/18 04:21:17;;;;;;;0.10;0.10;;;;;;;12.13;83.44;101590.00;7364193;19;20010;-59
2024/02/18 04:23:44;;;;;;;0.10;0.10;;;;;;;12.09;83.73;101577.84;7360970;19;20023;-58
2024/02/18 04:26:10;;;;;;;0.17;0.17;;;;;;;12.09;83.72;101587.44;7371391;19;20070;-60
2024/02/18 04:28:35;;;;;;;0.10;0.10;;;;;;;12.09;83.79;101593.56;7370480;19;20085;-59
2024/02/18 04:31:00;;;;;;;0.20;0.20;;;;;;;12.08;83.69;101596.19;7366802;19;20358;-59
2024/02/18 04:33:26;;;;;;;0.20;0.20;;;;;;;12.08;83.40;101597.06;7366676;19;20024;-59
2024/02/18 04:35:51;;;;;;;0.10;0.10;;;;;;;12.06;83.64;101601.44;7372586;19;20031;-59
2024/02/18 04:38:17;;;;;;;0.10;0.10;;;;;;;12.07;83.81;101600.56;7368216;19;20003;-62
2024/02/18 04:40:42;;;;;;;0.10;0.10;;;;;;;12.07;83.61;101594.47;7371280;19;20044;-59
2024/02/18 04:43:09;;;;;;;0.20;0.20;;;;;;;12.07;83.73;101607.56;7365584;19;20023;-60
2024/02/18 04:45:35;;;;;;;0.10;0.10;;;;;;;12.05;83.84;101602.31;7369989;19;20682;-60
2024/02/18 04:48:00;;;;;;;0.10;0.10;;;;;;;11.91;83.72;101583.31;7366701;19;20025;-60
2024/02/18 04:50:26;;;;;;;0.10;0.10;;;;;;;12.00;83.61;101593.69;7369808;19;20066;-59
2024/02/18 04:52:52;;;;;;;0.13;0.13;;;;;;;12.07;83.54;101608.44;7370141;19;20745;-60
2024/02/18 04:55:17;;;;;;;0.08;0.08;;;;;;;12.07;83.76;101611.03;7367477;19;20006;-59
2024/02/18 04:57:43;;;;;;;0.10;0.10;;;;;;;12.09;83.61;101618.88;7369419;19;20013;-60
2024/02/18 05:00:10;;;;;;;0.10;0.10;;;;;;;12.09;83.60;101619.72;7369111;19;20011;-60
2024/02/18 05:02:36;;;;;;;0.10;0.10;;;;;;;12.10;83.76;101610.13;7371932;19;20029;-59
2024/02/18 05:05:02;;;;;;;0.10;0.10;;;;;;;12.09;83.51;101611.88;7366031;19;20015;-60
2024/02/18 05:07:27;;;;;;;0.10;0.10;;;;;;;12.09;83.49;101614.50;7366216;19;20021;-60
2024/02/18 05:09:52;;;;;;;0.10;0.10;;;;;;;12.09;83.35;101619.72;7368234;19;20029;-60
2024/02/18 05:12:18;;;;;;;0.10;0.10;;;;;;;12.09;83.49;101624.09;7362749;19;20011;-60
2024/02/18 05:14:44;;;;;;;0.20;0.20;;;;;;;12.07;83.59;101626.75;7368090;19;20020;-60
2024/02/18 05:17:09;;;;;;;0.10;0.10;;;;;;;12.06;83.09;101632.84;7367672;19;20118;-60
2024/02/18 05:19:35;;;;;;;0.10;0.10;;;;;;;12.04;83.45;101642.50;7368807;19;20018;-59
2024/02/18 05:22:01;;;;;;;0.10;0.10;;;;;;;11.85;83.44;101609.59;7368190;19;20010;-59
2024/02/18 05:24:26;;;;;;;0.10;0.10;;;;;;;12.00;82.93;101639.94;7367105;19;20007;-60
2024/02/18 05:26:52;;;;;;;0.10;0.10;;;;;;;11.98;82.91;101637.34;7369049;19;20087;-60
2024/02/18 05:29:17;;;;;;;0.10;0.10;;;;;;;11.91;83.17;101636.56;7369730;19;20089;-60
2024/02/18 05:31:43;;;;;;;0.10;0.10;;;;;;;11.94;83.07;101651.34;7364344;19;20018;-60
2024/02/18 05:34:08;;;;;;;0.10;0.10;;;;;;;11.90;82.90;101649.66;7363086;19;20015;-59
2024/02/18 05:36:33;;;;;;;0.10;0.10;;;;;;;11.87;83.25;101650.56;7344788;19;20003;-60
2024/02/18 05:38:59;;;;;;;0.10;0.10;;;;;;;11.86;83.32;101642.72;7370644;19;20007;-60
2024/02/18 05:41:24;;;;;;;0.20;0.20;;;;;;;11.85;83.11;101651.47;7370048;19;20012;-60
2024/02/18 05:43:50;;;;;;;0.10;0.10;;;;;;;11.85;83.07;101654.09;7366890;19;20013;-59
2024/02/18 05:46:15;;;;;;;0.10;0.10;;;;;;;11.84;82.93;101652.34;7362218;19;20033;-60
2024/02/18 05:48:41;;;;;;;0.10;0.10;;;;;;;11.83;83.45;101654.13;7370498;19;20458;-60
2024/02/18 05:51:07;;;;;;;0.10;0.10;;;;;;;11.82;83.22;101651.53;7359449;19;20018;-60
2024/02/18 05:53:34;;;;;;;0.10;0.10;;;;;;;11.83;83.56;101663.72;7369735;19;20018;-60
2024/02/18 05:55:59;;;;;;;0.10;0.10;;;;;;;11.83;83.45;101659.34;7363873;19;20029;-61
2024/02/18 05:58:25;;;;;;;0.10;0.10;;;;;;;11.84;83.70;101668.06;7364834;19;20469;-60
2024/02/18 06:00:50;;;;;;;0.10;0.10;;;;;;;11.83;83.62;101663.72;7368708;19;20031;-60
2024/02/18 06:03:17;;;;;;;0.10;0.10;;;;;;;11.72;83.13;101649.88;7369445;19;20018;-60
2024/02/18 06:05:42;;;;;;;0.10;0.10;;;;;;;11.86;83.30;101674.13;7368612;19;20014;-60
2024/02/18 06:08:08;;;;;;;0.10;0.10;;;;;;;11.87;83.67;101673.28;7366486;19;20018;-61
2024/02/18 06:10:33;;;;;;;0.15;0.15;;;;;;;11.61;83.66;101637.78;7369194;19;20494;-60
2024/02/18 06:13:00;;;;;;;0.17;0.17;;;;;;;11.88;83.30;101677.63;7365658;19;20381;-60
2024/02/18 06:15:26;;;;;;;0.10;0.10;;;;;;;11.85;83.24;101672.41;7341694;19;20010;-60
2024/02/18 06:17:51;;;;;;;0.10;0.10;;;;;;;11.90;83.75;101681.06;7369196;19;20007;-60
2024/02/18 06:20:16;;;;;;;0.10;0.10;;;;;;;11.90;83.32;101673.22;7362863;19;20379;-60
2024/02/18 06:22:42;;;;;;;0.10;0.10;;;;;;;11.91;83.24;101674.94;7369188;19;20025;-59
2024/02/18 06:25:08;;;;;;;0.10;0.10;;;;;;;11.92;83.54;101676.69;7365452;19;20078;-59
2024/02/18 06:27:35;;;;;;;0.10;0.10;;;;;;;11.92;83.35;101679.31;7370563;19;20018;-60
2024/02/18 06:30:04;;;;;;;0.10;0.10;;;;;;;11.95;83.58;101677.50;7367650;19;20637;-60
2024/02/18 06:32:30;;;;;;;0.10;0.10;;;;;;;11.94;83.29;101682.75;7362415;19;20379;-59
2024/02/18 06:34:55;;;;;;;0.10;0.10;;;;;;;11.95;83.84;101681.88;7368282;19;20015;-60
2024/02/18 06:37:21;;;;;;;0.10;0.10;;;;;;;11.95;83.43;101679.25;7362089;19;20010;-60
2024/02/18 06:39:46;;;;;;;0.10;0.10;;;;;;;11.89;83.75;101679.34;7365182;19;20010;-60
2024/02/18 06:42:12;;;;;;;0.10;0.10;;;;;;;11.96;83.44;101686.22;7369187;19;20006;-59
2024/02/18 06:44:37;;;;;;;0.10;0.10;;;;;;;11.96;83.61;101686.22;7364009;19;20016;-60
2024/02/18 06:47:03;;;;;;;0.10;0.10;;;;;;;11.97;83.65;101693.22;7368861;19;20013;-60
2024/02/18 06:49:28;;;;;;;0.10;0.10;;;;;;;11.98;83.29;101684.47;7363549;19;20045;-60
2024/02/18 06:51:54;;;;;;;0.13;0.13;;;;;;;11.98;83.73;101679.22;7363739;19;20006;-60
2024/02/18 06:54:19;;;;;;;0.10;0.10;;;;;;;11.98;83.47;101687.09;7365259;19;20011;-60
2024/02/18 06:56:45;;;;;;;0.13;0.13;;;;;;;11.98;83.66;101689.69;7365019;19;20010;-58
2024/02/18 06:59:13;;;;;;;0.10;0.10;;;;;;;11.98;83.33;101689.69;7362562;19;20030;-60
2024/02/18 07:01:38;;;;;;;0.10;0.10;;;;;;;11.90;83.32;101678.44;7364067;19;20478;-60
2024/02/18 07:04:04;;;;;;;0.10;0.10;;;;;;;11.98;83.51;101692.31;7367609;19;20038;-60
2024/02/18 07:06:29;;;;;;;0.10;0.10;;;;;;;11.99;83.09;101696.66;7361231;19;20014;-58
2024/02/18 07:08:55;;;;;;;0.10;0.10;;;;;;;11.98;83.58;101694.94;7367876;19;20489;-60
2024/02/18 07:11:22;;;;;;;0.10;0.10;;;;;;;11.97;83.56;101703.69;7365308;19;20014;-60
2024/02/18 07:13:48;;;;;;;;;;;;;;;12.02;83.24;101696.63;7364429;19;20031;-59
2024/02/18 07:16:13;;;;;;;0.10;0.10;;;;;;;11.98;83.35;101701.94;7366692;19;20328;-60
2024/02/18 07:18:39;;;;;;;0.13;0.13;;;;;;;11.96;83.08;101707.16;7361820;19;20073;-58
2024/02/18 07:21:04;;;;;;;0.10;0.10;;;;;;;11.95;83.08;101713.28;7353529;19;20026;-59
2024/02/18 07:23:30;;;;;;;0.10;0.10;;;;;;;11.81;83.11;101696.84;7362005;19;20039;-59
2024/02/18 07:25:56;;;;;;;0.10;0.10;;;;;;;11.92;83.07;101716.81;7366428;19;20007;-60
2024/02/18 07:28:21;;;;;;;0.10;0.10;;;;;;;11.90;83.49;101723.81;7361276;19;20034;-60
2024/02/18 07:30:47;;;;;;;0.10;0.10;;;;;;;11.89;83.35;101727.31;7365608;19;20655;-60
2024/02/18 07:33:12;;;;;;;0.10;0.10;;;;;;;11.86;83.14;101726.47;7357342;19;20014;-60
2024/02/18 07:35:38;;;;;;;0.10;0.10;;;;;;;11.85;83.24;101730.84;7364353;19;20043;-60
2024/02/18 07:38:03;;;;;;;0.10;0.10;;;;;;;11.84;83.33;101741.34;7362235;19;20018;-60
2024/02/18 07:40:29;;;;;;;0.10;0.10;;;;;;;11.80;83.21;101730.00;7367109;19;20363;-62
2024/02/18 07:42:54;;;;;;;0.10;0.10;;;;;;;11.78;83.43;101728.28;7362320;19;20468;-62
2024/02/18 07:45:19;;;;;;;0.10;0.10;;;;;;;11.41;83.16;101681.63;7366377;19;20033;-61
2024/02/18 07:47:45;;;;;;;0.20;0.20;;;;;;;11.74;83.34;101742.28;7362728;19;20020;-62
2024/02/18 07:50:11;;;;;;;0.00;0.00;;;;;;;11.74;83.17;101750.16;7364119;19;20003;-62
2024/02/18 07:52:36;;;;;;;0.10;0.10;;;;;;;11.71;83.56;101748.44;7364388;19;20489;-62
2024/02/18 07:55:02;;;;;;;0.10;0.10;;;;;;;11.73;83.53;101757.13;7363558;19;20077;-61
2024/02/18 07:57:28;;;;;;;0.10;0.10;;;;;;;11.74;83.56;101758.00;7364048;19;20517;-62
2024/02/18 07:59:53;;;;;;;0.10;0.10;;;;;;;11.73;83.31;101753.66;7361537;19;20092;-62
2024/02/18 08:02:19;;;;;;;0.10;0.10;;;;;;;11.76;83.53;101762.34;7364702;19;20039;-62
2024/02/18 08:04:44;;;;;;;0.10;0.10;;;;;;;11.77;83.45;101768.44;7365890;19;20011;-62
2024/02/18 08:07:09;;;;;;;0.10;0.10;;;;;;;11.77;83.51;101769.31;7355011;19;20105;-62
2024/02/18 08:09:35;;;;;;;0.10;0.10;;;;;;;11.81;83.63;101783.19;7367644;19;20740;-62
2024/02/18 08:12:00;;;;;;;0.10;0.10;;;;;;;11.78;83.33;101771.03;7362068;19;20014;-62
2024/02/18 08:14:26;;;;;;;0.10;0.10;;;;;;;11.84;83.45;101788.44;7356171;19;20003;-61
2024/02/18 08:16:53;;;;;;;0.10;0.10;;;;;;;11.86;83.62;101794.53;7359684;19;20003;-61
2024/02/18 08:19:18;;;;;;;0.10;0.10;;;;;;;11.88;83.58;101800.63;7358722;19;20006;-61
2024/02/18 08:21:43;;;;;;;0.20;0.20;;;;;;;11.75;83.17;101786.75;7357654;19;20039;-63
2024/02/18 08:24:09;;;;;;;0.10;0.10;;;;;;;11.72;83.21;101781.56;7364041;19;20037;-63
2024/02/18 08:26:35;;;;;;;0.10;0.10;;;;;;;11.92;83.43;101804.94;7361384;19;20544;-62
2024/02/18 08:29:00;;;;;;;0.10;0.10;;;;;;;11.97;83.64;101808.38;7361559;19;20010;-62
2024/02/18 08:31:26;;;;;;;0.10;0.10;;;;;;;11.93;83.47;101804.06;7357320;19;20018;-62
2024/02/18 08:33:51;;;;;;;0.10;0.10;;;;;;;11.99;83.62;101814.47;7362739;19;20011;-62
2024/02/18 08:36:17;;;;;;;0.10;0.10;;;;;;;12.03;83.46;101821.41;7364095;19;20014;-62
2024/02/18 08:38:43;;;;;;;0.10;0.10;;;;;;;12.05;83.65;101822.25;7358622;19;20012;-63
2024/02/18 08:41:09;;;;;;;0.10;0.10;;;;;;;12.01;83.26;101814.44;7366182;19;20042;-62
2024/02/18 08:43:42;;;;;;;0.10;0.10;;;;;;;11.98;83.43;101804.03;7357907;19;20018;-62
2024/02/18 08:46:08;;;;;;;0.10;0.10;;;;;;;12.04;83.52;101819.66;7364083;19;20081;-62
2024/02/18 08:48:37;;;;;;;0.15;0.15;;;;;;;12.14;83.27;101832.63;7360145;19;20013;-62
2024/02/18 08:51:04;;;;;;;0.10;0.10;;;;;;;12.17;83.18;101832.59;7363486;19;20503;-62
2024/02/18 08:53:29;;;;;;;0.10;0.10;;;;;;;12.26;83.34;101838.59;7359263;19;20084;-62
2024/02/18 08:55:55;;;;;;;0.10;0.10;;;;;;;12.37;83.19;101839.38;7365721;19;20066;-62
2024/02/18 08:58:20;;;;;;;0.10;0.10;;;;;;;12.48;82.64;101842.72;7355689;19;20003;-63
2024/02/18 09:00:47;;;;;;;0.15;0.15;;;;;;;12.58;82.54;101835.63;7362084;19;20058;-62
2024/02/18 09:03:14;;;;;;;0.10;0.10;;;;;;;12.67;82.12;101843.31;7361940;19;20482;-62
2024/02/18 09:05:39;;;;;;;0.10;0.10;;;;;;;12.64;82.29;101839.00;7358480;19;20017;-62
2024/02/18 09:08:05;;;;;;;0.10;0.10;;;;;;;12.83;82.08;101859.75;7363144;19;19998;-63
2024/02/18 09:10:31;;;;;;;0.10;0.10;;;;;;;12.91;82.02;101861.34;7354458;19;20006;-62
2024/02/18 09:13:00;;;;;;;0.10;0.10;;;;;;;13.08;81.91;101876.88;7366108;19;20310;-63
2024/02/18 09:15:30;;;;;;;0.10;0.10;;;;;;;13.21;81.88;101885.41;7361704;19;20026;-62
2024/02/18 09:17:56;;;;;;;0.10;0.10;;;;;;;13.35;81.67;101882.63;7363243;19;20065;-62
2024/02/18 09:20:23;;;;;;;0.10;0.10;;;;;;;13.52;81.41;101877.97;7365974;19;20054;-62
2024/02/18 09:22:49;;;;;;;0.10;0.10;;;;;;;13.65;81.28;101884.75;7367376;19;20007;-64
2024/02/18 09:25:14;;;;;;;0.10;0.10;;;;;;;13.81;80.65;101884.50;7369142;19;20365;-62
2024/02/18 09:27:40;;;;;;;0.10;0.10;;;;;;;13.87;80.08;101889.63;7368929;19;20007;-62
2024/02/18 09:30:06;;;;;;;0.10;0.10;;;;;;;13.92;80.06;101893.06;7369756;19;20031;-62
2024/02/18 09:32:31;;;;;;;0.10;0.10;;;;;;;13.92;80.16;101893.06;7363658;19;20044;-62
2024/02/18 09:34:57;;;;;;;0.10;0.10;;;;;;;13.92;80.33;101893.06;7367707;19;20006;-62
2024/02/18 09:37:22;;;;;;;0.10;0.10;;;;;;;13.89;80.33;101898.34;7364046;19;20482;-62
2024/02/18 09:39:48;;;;;;;0.15;0.15;;;;;;;13.88;80.39;101886.13;7367042;19;20041;-62
2024/02/18 09:42:14;;;;;;;0.15;0.15;;;;;;;13.90;81.27;101879.97;7368105;19;20466;-62
2024/02/18 09:44:42;;;;;;;0.10;0.10;;;;;;;13.95;80.88;101887.75;7368413;19;20544;-62
2024/02/18 09:47:10;;;;;;;0.10;0.10;;;;;;;14.01;80.99;101887.66;7367897;19;20391;-63
2024/02/18 09:49:36;;;;;;;0.10;0.10;;;;;;;14.11;80.86;101886.59;7364441;19;20010;-62
2024/02/18 09:52:02;;;;;;;0.20;0.20;;;;;;;14.22;80.47;101887.25;7371477;19;20014;-62
2024/02/18 09:54:30;;;;;;;0.10;0.10;;;;;;;14.32;80.07;101887.06;7367198;19;20773;-62
2024/02/18 09:56:55;;;;;;;0.10;0.10;;;;;;;14.53;79.85;101898.06;7368328;19;20010;-62
2024/02/18 09:59:22;;;;;;;0.20;0.20;;;;;;;14.70;79.43;101905.63;7362015;19;20485;-60
2024/02/18 10:01:53;;;;;;;0.20;0.20;;;;;;;14.94;79.50;101904.22;7363324;19;20026;-60
2024/02/18 10:04:19;;;;;;;0.10;0.10;;;;;;;15.07;79.08;101904.81;7352349;19;20010;-61
2024/02/18 10:06:44;;;;;;;0.10;0.10;;;;;;;15.27;79.46;101907.88;7365360;19;20757;-60
2024/02/18 10:09:10;;;;;;;0.10;0.10;;;;;;;15.43;78.81;101902.25;7360644;19;20014;-60
2024/02/18 10:11:36;;;;;;;0.10;0.10;;;;;;;15.57;78.01;101894.91;7366868;19;20014;-60
2024/02/18 10:14:01;;;;;;;0.10;0.10;;;;;;;15.73;77.77;101900.69;7361778;19;20041;-60
2024/02/18 10:16:27;;;;;;;0.10;0.10;;;;;;;15.92;77.40;101916.91;7364759;19;20014;-60
2024/02/18 10:18:55;;;;;;;0.10;0.10;;;;;;;16.19;77.87;101925.84;7360616;19;20010;-61
2024/02/18 10:21:21;;;;;;;0.20;0.20;;;;;;;16.30;77.38;101929.91;7364868;19;20019;-60
2024/02/18 10:23:46;;;;;;;0.10;0.10;;;;;;;16.53;76.89;101941.63;7358050;19;20021;-61
2024/02/18 10:26:12;;;;;;;0.10;0.10;;;;;;;16.69;76.38;101942.91;7366243;19;20992;-60
2024/02/18 10:28:39;;;;;;;0.10;0.10;;;;;;;16.84;75.86;101944.28;7366808;19;20917;-60
2024/02/18 10:31:07;;;;;;;0.10;0.10;;;;;;;17.04;75.78;101948.97;7365157;19;20010;-61
2024/02/18 10:33:37;;;;;;;0.10;0.10;;;;;;;17.22;76.29;101947.53;7360303;19;20026;-60
2024/02/18 10:36:07;;;;;;;0.10;0.10;;;;;;;17.42;76.17;101966.28;7365877;19;20039;-60
2024/02/18 10:38:35;;;;;;;0.10;0.10;;;;;;;17.52;75.15;101966.84;7362455;19;20009;-60
2024/02/18 10:41:03;;;;;;;0.10;0.10;;;;;;;17.67;75.24;101971.66;7363217;19;20957;-60
2024/02/18 10:43:32;;;;;;;0.10;0.10;;;;;;;17.79;73.89;101992.44;7363611;19;20003;-61
2024/02/18 10:46:00;;;;;;;0.10;0.10;;;;;;;17.88;73.95;102007.97;7367200;19;20510;-60
2024/02/18 10:48:28;;;;;;;0.10;0.10;;;;;;;17.93;74.07;101999.91;7348102;19;20013;-60
2024/02/18 10:50:54;;;;;;;0.20;0.20;;;;;;;17.88;73.74;102001.84;7357235;19;20147;-60
2024/02/18 10:53:44;;;;;;;0.10;0.10;;;;;;;17.95;74.95;101999.88;7354974;19;20427;-60
2024/02/18 10:56:28;;;;;;;0.10;0.10;;;;;;;17.94;75.48;102006.06;7307164;19;20069;-60
2024/02/18 10:59:06;;;;;;;0.10;0.10;;;;;;;17.85;75.07;102016.03;7357107;19;20095;-60
2024/02/18 11:01:37;;;;;;;0.10;0.10;;;;;;;17.62;74.84;102010.56;7365216;19;19999;-60
2024/02/18 11:04:07;;;;;;;0.13;0.13;;;;;;;17.69;74.80;102041.19;7361026;19;20695;-60
2024/02/18 11:06:35;;;;;;;0.10;0.10;;;;;;;17.75;75.65;102046.28;7363376;19;20021;-60
2024/02/18 11:09:00;;;;;;;0.15;0.15;;;;;;;17.73;74.81;102034.03;7365072;19;20015;-60
2024/02/18 11:11:27;;;;;;;0.13;0.13;;;;;;;17.79;75.10;102026.81;7362540;19;20439;-60
2024/02/18 11:13:54;;;;;;;0.10;0.10;;;;;;;18.05;74.86;102044.47;7363158;19;20015;-60
2024/02/18 11:16:21;;;;;;;0.20;0.20;;;;;;;18.16;74.54;102049.41;7364376;19;20074;-60
2024/02/18 11:18:48;;;;;;;0.10;0.10;;;;;;;18.23;74.41;102052.69;7362009;19;20094;-61
2024/02/18 11:21:14;;;;;;;0.10;0.10;;;;;;;18.11;74.94;102027.53;7365879;19;20002;-60